createdAt,value
2022-10-29T00:00:57.330Z,5.72
2022-10-29T00:03:25.266Z,5.47
2022-10-29T00:06:04.075Z,5.72
2022-10-29T00:08:33.522Z,5.25
2022-10-29T00:11:29.992Z,6.22
2022-10-29T00:14:00.983Z,6.07
2022-10-29T00:16:34.871Z,6.68
2022-10-29T00:19:01.964Z,6.43
2022-10-29T00:21:29.058Z,7.15
2022-10-29T00:23:58.105Z,6.18
2022-10-29T00:26:28.156Z,7.28
2022-10-29T00:28:57.127Z,6.05
2022-10-29T00:31:26.635Z,6.35
2022-10-29T00:33:55.351Z,5.90
2022-10-29T00:36:28.923Z,7.15
2022-10-29T00:38:57.197Z,6.53
2022-10-29T00:41:29.372Z,6.25
2022-10-29T00:44:14.819Z,6.43
2022-10-29T00:46:48.053Z,6.90
2022-10-29T00:49:16.718Z,6.47
2022-10-29T00:51:45.513Z,6.85
2022-10-29T00:54:16.311Z,6.85
2022-10-29T00:56:52.093Z,6.57
2022-10-29T00:59:19.893Z,6.13
2022-10-29T01:01:49.434Z,6.07
2022-10-29T01:04:18.490Z,6.28
2022-10-29T01:06:47.283Z,6.78
2022-10-29T01:09:14.694Z,6.15
2022-10-29T01:12:04.432Z,7.00
2022-10-29T01:14:52.204Z,7.68
2022-10-29T01:17:50.750Z,7.28
2022-10-29T01:21:02.139Z,7.10
2022-10-29T01:24:08.311Z,7.00
2022-10-29T01:27:22.403Z,7.68
2022-10-29T01:30:11.212Z,6.43
2022-10-29T01:33:07.401Z,6.80
2022-10-29T01:35:47.644Z,7.28
2022-10-29T01:38:21.364Z,7.60
2022-10-29T01:41:03.844Z,6.80
2022-10-29T01:43:49.858Z,7.20
2022-10-29T01:46:29.013Z,6.60
2022-10-29T01:49:04.024Z,5.78
2022-10-29T01:51:35.641Z,6.32
2022-10-29T01:54:09.606Z,6.78
2022-10-29T01:56:36.699Z,6.68
2022-10-29T01:59:18.276Z,6.53
2022-10-29T02:02:23.842Z,7.53
2022-10-29T02:05:27.420Z,7.25
2022-10-29T02:08:23.822Z,6.53
2022-10-29T02:11:25.862Z,6.97
2022-10-29T02:14:41.888Z,6.72
2022-10-29T02:17:08.894Z,6.03
2022-10-29T02:19:37.446Z,6.55
2022-10-29T02:22:04.604Z,6.38
2022-10-29T02:24:31.807Z,6.90
2022-10-29T02:26:58.928Z,6.78
2022-10-29T02:29:25.885Z,6.43
2022-10-29T02:31:52.878Z,6.97
2022-10-29T02:34:19.898Z,6.57
2022-10-29T02:36:47.235Z,6.43
2022-10-29T02:39:14.250Z,7.05
2022-10-29T02:41:41.265Z,7.00
2022-10-29T02:44:08.315Z,7.00
2022-10-29T02:46:39.797Z,6.95
2022-10-29T02:49:08.175Z,6.93
2022-10-29T02:51:35.208Z,7.32
2022-10-29T02:54:02.283Z,7.43
2022-10-29T02:56:29.374Z,7.65
2022-10-29T02:58:56.420Z,7.22
2022-10-29T03:01:26.010Z,7.38
2022-10-29T03:03:53.165Z,7.63
2022-10-29T03:06:21.296Z,7.38
2022-10-29T03:08:48.496Z,7.85
2022-10-29T03:11:15.798Z,7.65
2022-10-29T03:13:43.213Z,6.93
2022-10-29T03:16:10.606Z,7.43
2022-10-29T03:18:37.746Z,6.82
2022-10-29T03:21:04.824Z,6.60
2022-10-29T03:23:31.859Z,7.30
2022-10-29T03:25:58.845Z,7.80
2022-10-29T03:28:28.354Z,6.32
2022-10-29T03:30:55.609Z,6.65
2022-10-29T03:33:23.232Z,5.88
2022-10-29T03:35:50.379Z,6.97
2022-10-29T03:38:17.388Z,6.75
2022-10-29T03:40:44.401Z,6.75
2022-10-29T03:43:11.408Z,6.03
2022-10-29T03:45:38.444Z,7.35
2022-10-29T03:48:06.193Z,6.80
2022-10-29T03:50:33.239Z,7.70
2022-10-29T03:53:00.311Z,6.95
2022-10-29T03:55:29.229Z,7.03
2022-10-29T03:57:56.962Z,7.65
2022-10-29T04:00:24.382Z,7.57
2022-10-29T04:02:51.508Z,8.10
2022-10-29T04:05:18.571Z,7.93
2022-10-29T04:07:45.886Z,7.65
2022-10-29T04:10:12.880Z,8.63
2022-10-29T04:12:39.853Z,8.25
2022-10-29T04:15:07.611Z,7.75
2022-10-29T04:17:34.563Z,7.63
2022-10-29T04:20:01.792Z,7.93
2022-10-29T04:24:12.092Z,8.40
2022-10-29T04:28:42.661Z,7.80
2022-10-29T04:30:50.901Z,6.45
2022-10-29T04:33:18.108Z,7.35
2022-10-29T04:35:50.990Z,7.22
2022-10-29T04:38:18.005Z,7.60
2022-10-29T04:40:45.020Z,7.00
2022-10-29T04:43:12.117Z,7.47
2022-10-29T04:45:39.192Z,7.90
2022-10-29T04:48:07.217Z,7.22
2022-10-29T04:50:38.223Z,7.82
2022-10-29T04:53:07.252Z,7.60
2022-10-29T04:55:39.593Z,9.02
2022-10-29T04:58:08.459Z,8.15
2022-10-29T05:00:35.544Z,8.27
2022-10-29T05:03:02.622Z,8.40
2022-10-29T05:05:29.748Z,8.73
2022-10-29T05:08:01.707Z,9.65
2022-10-29T05:10:32.679Z,8.55
2022-10-29T05:13:11.003Z,9.00
2022-10-29T05:15:39.641Z,8.50
2022-10-29T05:18:07.498Z,9.23
2022-10-29T05:20:34.685Z,8.90
2022-10-29T05:23:08.351Z,8.60
2022-10-29T05:25:38.195Z,9.80
2022-10-29T05:28:14.855Z,9.85
2022-10-29T05:30:43.874Z,8.77
2022-10-29T05:33:14.321Z,9.32
2022-10-29T05:35:41.451Z,9.60
2022-10-29T05:38:10.783Z,9.13
2022-10-29T05:40:38.547Z,9.00
2022-10-29T05:43:05.995Z,9.45
2022-10-29T05:45:33.256Z,10.13
2022-10-29T05:48:02.554Z,10.38
2022-10-29T05:50:30.685Z,11.10
2022-10-29T05:53:00.412Z,8.75
2022-10-29T05:55:29.102Z,9.27
2022-10-29T05:58:01.927Z,9.43
2022-10-29T06:00:32.082Z,8.95
2022-10-29T06:02:59.324Z,8.77
2022-10-29T06:05:26.673Z,9.88
2022-10-29T06:07:59.595Z,9.70
2022-10-29T06:10:29.409Z,9.45
2022-10-29T06:12:56.620Z,9.35
2022-10-29T06:15:23.663Z,10.55
2022-10-29T06:17:50.847Z,8.75
2022-10-29T06:20:21.015Z,9.52
2022-10-29T06:22:55.741Z,9.48
2022-10-29T06:25:23.429Z,9.77
2022-10-29T06:28:03.332Z,9.90
2022-10-29T06:30:33.145Z,9.80
2022-10-29T06:33:00.992Z,9.13
2022-10-29T06:35:28.744Z,9.73
2022-10-29T06:37:56.767Z,9.32
2022-10-29T06:40:24.198Z,9.65
2022-10-29T06:43:15.787Z,9.38
2022-10-29T06:45:42.881Z,9.68
2022-10-29T06:48:09.893Z,9.07
2022-10-29T06:50:36.981Z,9.25
2022-10-29T06:53:07.828Z,9.77
2022-10-29T06:55:35.425Z,9.63
2022-10-29T06:58:11.969Z,9.93
2022-10-29T07:00:39.525Z,10.10
2022-10-29T07:03:07.381Z,10.55
2022-10-29T07:05:36.400Z,9.60
2022-10-29T07:08:03.570Z,9.82
2022-10-29T07:10:33.239Z,9.10
2022-10-29T07:13:00.998Z,8.75
2022-10-29T07:15:30.643Z,9.50
2022-10-29T07:18:09.535Z,9.15
2022-10-29T07:20:42.740Z,9.88
2022-10-29T07:23:11.694Z,9.48
2022-10-29T07:25:40.236Z,9.50
2022-10-29T07:28:16.748Z,9.48
2022-10-29T07:30:45.362Z,9.95
2022-10-29T07:33:14.087Z,10.00
2022-10-29T07:35:42.061Z,10.45
2022-10-29T07:38:11.817Z,10.50
2022-10-29T07:40:57.098Z,10.57
2022-10-29T07:43:24.154Z,9.93
2022-10-29T07:45:52.023Z,10.75
2022-10-29T07:48:20.569Z,10.88
2022-10-29T07:50:48.460Z,9.80
2022-10-29T07:53:16.003Z,10.70
2022-10-29T07:55:43.088Z,10.48
2022-10-29T07:58:13.380Z,10.20
2022-10-29T08:00:41.749Z,9.52
2022-10-29T08:03:10.505Z,9.80
2022-10-29T08:05:37.921Z,10.25
2022-10-29T08:08:05.719Z,9.48
2022-10-29T08:10:35.011Z,9.95
2022-10-29T08:13:04.699Z,9.63
2022-10-29T08:15:33.859Z,8.85
2022-10-29T08:18:01.945Z,9.05
2022-10-29T08:20:30.769Z,8.95
2022-10-29T08:23:00.778Z,8.75
2022-10-29T08:25:28.319Z,9.45
2022-10-29T08:28:01.071Z,8.73
2022-10-29T08:30:28.172Z,8.73
2022-10-29T08:32:55.765Z,9.27
2022-10-29T08:35:23.468Z,8.48
2022-10-29T08:37:50.496Z,8.43
2022-10-29T08:40:39.402Z,7.63
2022-10-29T08:43:46.113Z,7.45
2022-10-29T08:46:38.199Z,8.52
2022-10-29T08:49:21.268Z,7.55
2022-10-29T08:52:10.106Z,6.18
2022-10-29T08:54:41.929Z,6.80
2022-10-29T08:57:15.592Z,5.53
2022-10-29T09:00:11.543Z,6.63
2022-10-29T09:02:40.302Z,6.50
2022-10-29T09:05:17.480Z,5.97
2022-10-29T09:08:09.521Z,5.78
2022-10-29T09:10:55.904Z,6.25
2022-10-29T09:13:25.577Z,5.88
2022-10-29T09:16:25.742Z,5.70
2022-10-29T09:19:45.685Z,5.75
2022-10-29T09:22:34.689Z,5.35
2022-10-29T09:25:20.550Z,5.78
2022-10-29T09:27:53.438Z,5.43
2022-10-29T09:30:21.868Z,5.65
2022-10-29T09:33:14.131Z,5.22
2022-10-29T09:35:49.786Z,4.47
2022-10-29T09:38:42.476Z,4.35
2022-10-29T09:41:12.412Z,4.65
2022-10-29T09:44:02.193Z,4.60
2022-10-29T09:46:57.395Z,4.85
2022-10-29T09:50:09.886Z,4.40
2022-10-29T09:52:40.871Z,4.72
2022-10-29T09:55:25.155Z,3.95
2022-10-29T09:57:53.608Z,3.75
2022-10-29T10:00:30.357Z,4.38
2022-10-29T10:03:14.964Z,3.80
2022-10-29T10:06:09.824Z,3.17
2022-10-29T10:09:00.636Z,4.10
2022-10-29T10:11:49.684Z,3.65
2022-10-29T10:14:24.775Z,3.55
2022-10-29T10:17:00.134Z,3.72
2022-10-29T10:19:31.004Z,3.15
2022-10-29T10:22:01.325Z,3.60
2022-10-29T10:24:38.492Z,3.55
2022-10-29T10:27:29.795Z,3.28
2022-10-29T10:30:15.879Z,4.15
2022-10-29T10:32:42.970Z,4.20
2022-10-29T10:35:32.100Z,3.53
2022-10-29T10:38:06.663Z,3.88
2022-10-29T10:40:33.781Z,4.03
2022-10-29T10:43:04.222Z,4.13
2022-10-29T10:45:40.219Z,3.00
2022-10-29T10:48:15.761Z,3.10
2022-10-29T10:50:42.873Z,3.38
2022-10-29T10:53:23.563Z,3.38
2022-10-29T10:55:59.998Z,3.28
2022-10-29T10:58:31.299Z,3.78
2022-10-29T11:01:12.259Z,4.15
2022-10-29T11:04:21.518Z,3.65
2022-10-29T11:06:52.209Z,3.42
2022-10-29T11:09:34.659Z,3.53
2022-10-29T11:12:12.012Z,3.40
2022-10-29T11:14:59.727Z,3.65
2022-10-29T11:17:28.103Z,3.72
2022-10-29T11:20:03.746Z,4.47
2022-10-29T11:22:45.811Z,3.42
2022-10-29T11:25:35.511Z,4.18
2022-10-29T11:28:43.891Z,4.30
2022-10-29T11:31:22.256Z,4.78
2022-10-29T11:34:04.188Z,3.80
2022-10-29T11:36:40.529Z,3.83
2022-10-29T11:39:29.010Z,3.38
2022-10-29T11:41:59.755Z,3.88
2022-10-29T11:44:29.572Z,2.60
2022-10-29T11:48:06.482Z,3.50
2022-10-29T11:50:59.713Z,3.42
2022-10-29T11:53:53.442Z,3.67
2022-10-29T11:56:50.340Z,3.35
2022-10-29T11:59:37.718Z,3.70
2022-10-29T12:02:48.227Z,2.75
2022-10-29T12:05:36.519Z,3.25
2022-10-29T12:08:37.169Z,3.38
2022-10-29T12:11:22.381Z,3.33
2022-10-29T12:14:03.069Z,3.25
2022-10-29T12:16:52.410Z,4.25
2022-10-29T12:19:54.433Z,2.92
2022-10-29T12:22:28.691Z,2.72
2022-10-29T12:25:29.367Z,3.08
2022-10-29T12:28:23.228Z,3.35
2022-10-29T12:31:20.786Z,3.78
2022-10-29T12:34:01.708Z,3.10
2022-10-29T12:36:44.998Z,3.55
2022-10-29T12:39:38.029Z,3.88
2022-10-29T12:42:22.735Z,3.10
2022-10-29T12:45:00.374Z,2.75
2022-10-29T12:47:44.554Z,3.20
2022-10-29T12:50:45.048Z,3.40
2022-10-29T12:53:29.761Z,3.17
2022-10-29T12:55:58.635Z,3.75
2022-10-29T12:58:50.280Z,3.80
2022-10-29T13:01:38.314Z,3.30
2022-10-29T13:04:31.909Z,2.85
2022-10-29T13:09:48.380Z,2.90
2022-10-29T13:13:02.323Z,3.45
2022-10-29T13:15:37.259Z,3.35
2022-10-29T13:18:25.993Z,3.05
2022-10-29T13:20:54.956Z,2.85
2022-10-29T13:23:22.001Z,2.75
2022-10-29T13:25:53.301Z,2.65
2022-10-29T13:28:20.129Z,3.30
2022-10-29T13:30:54.065Z,3.20
2022-10-29T13:33:23.663Z,3.03
2022-10-29T13:36:17.584Z,3.90
2022-10-29T13:39:05.505Z,3.35
2022-10-29T13:41:44.224Z,3.95
2022-10-29T13:44:23.079Z,3.28
2022-10-29T13:47:03.141Z,3.08
2022-10-29T13:49:37.010Z,4.03
2022-10-29T13:52:24.140Z,3.83
2022-10-29T13:54:57.253Z,3.15
2022-10-29T13:57:36.915Z,3.70
2022-10-29T14:00:12.954Z,2.70
2022-10-29T14:02:43.022Z,3.75
2022-10-29T14:05:47.222Z,2.72
2022-10-29T14:08:28.468Z,3.83
2022-10-29T14:10:59.496Z,3.10
2022-10-29T14:13:42.564Z,3.05
2022-10-29T14:16:12.171Z,3.53
2022-10-29T14:18:40.889Z,3.65
2022-10-29T14:21:24.553Z,3.35
2022-10-29T14:24:15.092Z,3.30
2022-10-29T14:26:45.390Z,3.75
2022-10-29T14:29:25.890Z,3.88
2022-10-29T14:32:19.111Z,3.78
2022-10-29T14:34:50.762Z,3.70
2022-10-29T14:37:25.365Z,3.83
2022-10-29T14:39:58.397Z,3.58
2022-10-29T14:42:35.704Z,3.63
2022-10-29T14:45:29.354Z,3.42
2022-10-29T14:48:08.996Z,3.50
2022-10-29T14:50:36.433Z,3.20
2022-10-29T14:53:17.681Z,3.78
2022-10-29T14:55:48.390Z,4.18
2022-10-29T14:58:28.850Z,3.90
2022-10-29T15:01:05.929Z,3.58
2022-10-29T15:03:35.249Z,4.35
2022-10-29T15:06:20.099Z,4.75
2022-10-29T15:09:20.135Z,3.70
2022-10-29T15:12:08.380Z,4.55
2022-10-29T15:14:46.962Z,3.63
2022-10-29T15:17:30.745Z,3.28
2022-10-29T15:20:05.942Z,3.70
2022-10-29T15:22:34.802Z,4.03
2022-10-29T15:25:05.871Z,4.13
2022-10-29T15:27:36.193Z,4.00
2022-10-29T15:30:04.802Z,3.95
2022-10-29T15:32:31.812Z,3.70
2022-10-29T15:34:59.753Z,4.65
2022-10-29T15:37:32.768Z,4.95
2022-10-29T15:40:08.694Z,4.53
2022-10-29T15:42:37.091Z,3.97
2022-10-29T15:45:15.680Z,3.92
2022-10-29T15:48:08.892Z,4.75
2022-10-29T15:50:42.216Z,4.20
2022-10-29T15:53:17.453Z,6.95
2022-10-29T15:55:44.767Z,6.53
2022-10-29T15:58:16.504Z,6.05
2022-10-29T16:00:44.095Z,6.88
2022-10-29T16:03:14.658Z,8.18
2022-10-29T16:05:43.602Z,5.97
2022-10-29T16:08:33.747Z,6.15
2022-10-29T16:11:05.218Z,6.47
2022-10-29T16:13:33.601Z,5.18
2022-10-29T16:16:01.176Z,6.57
2022-10-29T16:18:28.459Z,6.53
2022-10-29T16:21:01.990Z,5.97
2022-10-29T16:23:28.960Z,5.65
2022-10-29T16:25:55.891Z,6.20
2022-10-29T16:28:22.932Z,5.68
2022-10-29T16:30:55.579Z,5.57
2022-10-29T16:33:22.544Z,5.72
2022-10-29T16:35:49.550Z,5.40
2022-10-29T16:38:18.548Z,5.80
2022-10-29T16:40:45.791Z,5.75
2022-10-29T16:43:12.764Z,6.35
2022-10-29T16:45:41.298Z,5.75
2022-10-29T16:48:08.280Z,6.38
2022-10-29T16:50:35.330Z,6.60
2022-10-29T16:53:08.002Z,6.63
2022-10-29T16:55:38.472Z,6.75
2022-10-29T16:58:17.132Z,7.45
2022-10-29T17:00:45.486Z,6.47
2022-10-29T17:03:14.752Z,6.10
2022-10-29T17:05:45.030Z,5.80
2022-10-29T17:08:12.965Z,6.75
2022-10-29T17:10:39.982Z,5.85
2022-10-29T17:13:09.005Z,7.07
2022-10-29T17:15:40.971Z,6.70
2022-10-29T17:18:08.222Z,6.50
2022-10-29T17:20:35.180Z,6.65
2022-10-29T17:23:02.203Z,6.70
2022-10-29T17:25:29.152Z,5.90
2022-10-29T17:27:56.305Z,5.40
2022-10-29T17:30:23.485Z,6.15
2022-10-29T17:32:50.439Z,5.93
2022-10-29T17:35:17.479Z,7.05
2022-10-29T17:37:44.416Z,5.47
2022-10-29T17:40:11.778Z,6.28
2022-10-29T17:42:38.789Z,7.07
2022-10-29T17:45:06.601Z,6.57
2022-10-29T17:47:33.685Z,5.97
2022-10-29T17:50:00.756Z,5.95
2022-10-29T17:52:27.765Z,5.47
2022-10-29T17:54:54.677Z,4.97
2022-10-29T17:57:21.625Z,5.07
2022-10-29T17:59:48.594Z,5.18
2022-10-29T18:02:15.568Z,6.20
2022-10-29T18:04:42.645Z,4.75
2022-10-29T18:07:09.599Z,5.97
2022-10-29T18:09:36.513Z,4.57
2022-10-29T18:12:03.716Z,6.10
2022-10-29T18:14:30.748Z,5.82
2022-10-29T18:16:58.378Z,5.55
2022-10-29T18:19:25.351Z,5.32
2022-10-29T18:21:52.375Z,6.15
2022-10-29T18:24:21.053Z,6.38
2022-10-29T18:26:51.530Z,7.85
2022-10-29T18:29:18.694Z,6.97
2022-10-29T18:31:46.779Z,8.00
2022-10-29T18:34:15.298Z,7.82
2022-10-29T18:36:43.209Z,8.82
2022-10-29T18:39:10.318Z,8.63
2022-10-29T18:41:37.304Z,8.25
2022-10-29T18:44:04.615Z,7.70
2022-10-29T18:46:31.755Z,7.38
2022-10-29T18:49:00.749Z,7.32
2022-10-29T18:51:30.687Z,6.30
2022-10-29T18:53:58.960Z,6.32
2022-10-29T18:56:29.382Z,6.28
2022-10-29T18:58:58.110Z,5.97
2022-10-29T19:01:30.397Z,6.20
2022-10-29T19:04:00.305Z,5.30
2022-10-29T19:06:31.558Z,5.75
2022-10-29T19:09:01.842Z,5.47
2022-10-29T19:11:29.381Z,4.93
2022-10-29T19:14:02.781Z,5.88
2022-10-29T19:16:32.179Z,5.20
2022-10-29T19:19:06.608Z,5.68
2022-10-29T19:21:38.604Z,5.45
2022-10-29T19:24:07.008Z,5.38
2022-10-29T19:26:36.007Z,4.90
2022-10-29T19:29:06.653Z,4.88
2022-10-29T19:31:35.432Z,5.05
2022-10-29T19:34:06.196Z,4.90
2022-10-29T19:36:35.321Z,4.65
2022-10-29T19:39:03.814Z,5.40
2022-10-29T19:41:31.075Z,5.53
2022-10-29T19:44:04.755Z,5.40
2022-10-29T19:46:31.743Z,5.05
2022-10-29T19:48:59.338Z,5.95
2022-10-29T19:51:26.952Z,4.97
2022-10-29T19:53:54.433Z,5.70
2022-10-29T19:56:22.087Z,4.30
2022-10-29T19:58:49.739Z,4.63
2022-10-29T20:01:18.736Z,4.47
2022-10-29T20:03:47.390Z,4.40
2022-10-29T20:06:15.893Z,4.55
2022-10-29T20:08:43.324Z,4.70
2022-10-29T20:11:10.603Z,4.50
2022-10-29T20:13:39.751Z,5.07
2022-10-29T20:16:14.020Z,4.85
2022-10-29T20:18:41.045Z,4.60
2022-10-29T20:21:08.367Z,4.85
2022-10-29T20:23:35.850Z,4.80
2022-10-29T20:26:02.992Z,4.82
2022-10-29T20:28:29.986Z,4.72
2022-10-29T20:31:18.498Z,5.60
2022-10-29T20:33:59.893Z,5.22
2022-10-29T20:36:31.308Z,4.60
2022-10-29T20:38:58.643Z,4.90
2022-10-29T20:41:26.132Z,5.30
2022-10-29T20:44:03.781Z,5.07
2022-10-29T20:46:30.837Z,4.70
2022-10-29T20:48:57.909Z,4.65
2022-10-29T20:51:25.543Z,4.45
2022-10-29T20:53:53.462Z,4.95
2022-10-29T20:56:23.288Z,5.28
2022-10-29T20:58:50.433Z,4.70
2022-10-29T21:01:20.262Z,5.68
2022-10-29T21:03:50.092Z,5.03
2022-10-29T21:06:18.104Z,5.50
2022-10-29T21:08:47.080Z,5.03
2022-10-29T21:11:15.880Z,4.70
2022-10-29T21:13:43.374Z,5.43
2022-10-29T21:16:29.292Z,5.22
2022-10-29T21:18:59.656Z,5.82
2022-10-29T21:21:30.298Z,5.93
2022-10-29T21:23:58.252Z,5.43
2022-10-29T21:26:27.821Z,5.25
2022-10-29T21:28:55.742Z,5.82
2022-10-29T21:31:23.520Z,5.28
2022-10-29T21:33:54.825Z,5.47
2022-10-29T21:36:22.717Z,5.63
2022-10-29T21:38:49.926Z,5.47
2022-10-29T21:41:18.202Z,5.47
2022-10-29T21:43:45.270Z,5.43
2022-10-29T21:46:12.254Z,5.90
2022-10-29T21:48:39.186Z,5.68
2022-10-29T21:51:17.232Z,5.18
2022-10-29T21:53:44.285Z,5.78
2022-10-29T21:56:14.507Z,5.97
2022-10-29T21:58:42.050Z,5.65
2022-10-29T22:01:12.757Z,5.68
2022-10-29T22:03:42.532Z,6.25
2022-10-29T22:06:19.098Z,5.78
2022-10-29T22:08:48.118Z,5.13
2022-10-29T22:11:15.737Z,6.18
2022-10-29T22:13:42.774Z,5.55
2022-10-29T22:16:11.490Z,6.38
2022-10-29T22:18:39.137Z,6.28
2022-10-29T22:21:10.153Z,6.30
2022-10-29T22:23:41.464Z,6.13
2022-10-29T22:26:08.716Z,5.70
2022-10-29T22:28:36.006Z,5.80
2022-10-29T22:31:04.240Z,5.53
2022-10-29T22:33:32.146Z,5.18
2022-10-29T22:36:11.047Z,6.03
2022-10-29T22:38:38.737Z,5.75
2022-10-29T22:41:15.653Z,5.13
2022-10-29T22:43:44.070Z,6.38
2022-10-29T22:46:13.920Z,5.93
2022-10-29T22:48:41.477Z,5.22
2022-10-29T22:51:17.106Z,5.53
2022-10-29T22:53:45.945Z,5.93
2022-10-29T22:56:31.763Z,5.63
2022-10-29T22:58:59.605Z,5.45
2022-10-29T23:01:37.330Z,5.32
2022-10-29T23:04:07.348Z,5.57
2022-10-29T23:06:34.725Z,5.80
2022-10-29T23:09:02.251Z,6.07
2022-10-29T23:11:34.888Z,5.40
2022-10-29T23:14:02.934Z,5.05
2022-10-29T23:16:33.181Z,5.65
2022-10-29T23:19:03.469Z,5.45
2022-10-29T23:21:30.953Z,5.10
2022-10-29T23:23:58.360Z,5.80
2022-10-29T23:26:26.424Z,6.05
2022-10-29T23:28:53.695Z,5.35
2022-10-29T23:31:26.639Z,5.78
2022-10-29T23:33:56.229Z,5.53
2022-10-29T23:36:24.929Z,5.03
2022-10-29T23:39:00.184Z,4.93
2022-10-29T23:41:29.317Z,5.63
2022-10-29T23:43:56.879Z,5.10
2022-10-29T23:46:23.875Z,4.50
2022-10-29T23:48:50.822Z,5.50
2022-10-29T23:51:18.184Z,4.82
2022-10-29T23:53:45.250Z,4.82
2022-10-29T23:56:12.231Z,5.20
2022-10-29T23:58:39.295Z,5.40
